Time;durP1;ratioP1;P1;durP2;ratioP2;P2;SDS_P1;SDS_P2;PMS_P1;PMS_P2;Temp;Humidity;BMP_temperature;BMP_pressure;BME280_temperature;BME280_humidity;BME280_pressure;Samples;Min_cycle;Max_cycle;Signal;HPM_P1;HPM_P2
2023/12/17 00:00:00;;;;;;;;;;;;;;;6.37;95.94;100435.91;109539;1251;72766;-60
2023/12/17 00:02:31;;;;;;;;;;;;;;;6.40;96.26;100437.38;109612;1252;58899;-61
2023/12/17 00:04:58;;;;;;;;;;;;;;;6.33;96.63;100429.59;109564;1253;59018;-64
2023/12/17 00:07:25;;;;;;;;;;;;;;;6.50;95.87;100427.91;109632;1251;73451;-62
2023/12/17 00:09:53;;;;;;;;;;;;;;;6.84;93.38;100425.95;109412;1254;67482;-60
2023/12/17 00:12:20;;;;;;;;;;;;;;;6.30;96.51;100411.66;109268;1255;71450;-60
2023/12/17 00:14:48;;;;;;;;;;;;;;;6.19;97.79;100413.05;109289;1255;60023;-60
2023/12/17 00:17:16;;;;;;;;;;;;;;;6.27;97.70;100415.02;109305;1255;60010;-63
2023/12/17 00:19:43;;;;;;;;;;;;;;;6.42;96.65;100414.17;109328;1255;72937;-60
2023/12/17 00:22:11;;;;;;;;;;;;;;;6.34;97.30;100407.92;109086;1254;67593;-60
2023/12/17 00:24:38;;;;;;;;;;;;;;;6.29;97.59;100408.17;109166;1256;72730;-63
2023/12/17 00:27:06;;;;;;;;;;;;;;;6.39;97.02;100411.38;109384;1254;60929;-62
2023/12/17 00:29:33;;;;;;;;;;;;;;;6.42;97.15;100408.14;109408;1254;58951;-60
2023/12/17 00:32:00;;;;;;;;;;;;;;;6.37;97.18;100409.48;109389;1254;74698;-61
2023/12/17 00:34:28;;;;;;;;;;;;;;;6.34;97.49;100411.16;109394;1253;68569;-62
2023/12/17 00:36:56;;;;;;;;;;;;;;;6.19;98.75;100404.60;109355;1254;70461;-61
2023/12/17 00:39:23;;;;;;;;;;;;;;;6.42;97.66;100412.89;109148;1254;60966;-60
2023/12/17 00:41:50;;;;;;;;;;;;;;;6.35;97.95;100412.48;109573;1252;60043;-61
2023/12/17 00:44:18;;;;;;;;;;;;;;;6.48;97.33;100412.69;109651;1251;74681;-60
2023/12/17 00:46:45;;;;;;;;;;;;;;;6.39;97.23;100402.48;109631;1251;68512;-61
2023/12/17 00:49:13;;;;;;;;;;;;;;;6.27;98.49;100398.11;109605;1253;72800;-61
2023/12/17 00:51:40;;;;;;;;;;;;;;;6.54;96.79;100401.77;109601;1251;59987;-63
2023/12/17 00:54:08;;;;;;;;;;;;;;;6.69;95.69;100400.77;109619;1252;60894;-62
2023/12/17 00:56:35;;;;;;;;;;;;;;;6.62;95.82;100400.20;109606;1251;73456;-60
2023/12/17 00:59:03;;;;;;;;;;;;;;;6.36;97.81;100396.20;109650;1251;68940;-65
2023/12/17 01:01:30;;;;;;;;;;;;;;;6.45;97.73;100405.13;109628;1252;71443;-61
2023/12/17 01:03:57;;;;;;;;;;;;;;;6.47;97.33;100406.65;109621;1252;59672;-61
2023/12/17 01:06:25;;;;;;;;;;;;;;;6.45;97.34;100403.62;109626;1251;58892;-60
2023/12/17 01:08:52;;;;;;;;;;;;;;;6.52;97.07;100397.30;109654;1251;74229;-64
2023/12/17 01:11:20;;;;;;;;;;;;;;;6.50;97.22;100399.10;109660;1253;67248;-61
2023/12/17 01:13:47;;;;;;;;;;;;;;;6.48;97.25;100399.91;109536;1252;71326;-62
2023/12/17 01:16:15;;;;;;;;;;;;;;;6.55;96.75;100398.98;109595;1252;60928;-64
2023/12/17 01:18:42;;;;;;;;;;;;;;;6.65;96.27;100396.34;109621;1253;59836;-62
2023/12/17 01:21:10;;;;;;;;;;;;;;;6.34;98.28;100396.66;109553;1252;74842;-62
2023/12/17 01:23:37;;;;;;;;;;;;;;;6.51;97.30;100397.99;109548;1253;68653;-61
2023/12/17 01:26:05;;;;;;;;;;;;;;;6.57;97.09;100397.95;109514;1252;72721;-66
2023/12/17 01:28:33;;;;;;;;;;;;;;;6.43;97.70;100383.80;109390;1253;60898;-62
2023/12/17 01:31:00;;;;;;;;;;;;;;;6.67;96.66;100382.09;109552;1253;59890;-64
2023/12/17 01:33:28;;;;;;;;;;;;;;;6.66;96.12;100372.08;109511;1253;74717;-63
2023/12/17 01:35:55;;;;;;;;;;;;;;;6.38;98.47;100364.98;109545;1253;68524;-62
2023/12/17 01:38:22;;;;;;;;;;;;;;;6.94;95.05;100359.37;109590;1252;71481;-64
2023/12/17 01:40:50;;;;;;;;;;;;;;;6.84;95.10;100348.85;109534;1252;60942;-63
2023/12/17 01:43:17;;;;;;;;;;;;;;;6.87;94.90;100347.90;109592;1252;59883;-62
2023/12/17 01:45:45;;;;;;;;;;;;;;;6.98;94.31;100345.85;109562;1252;74745;-64
2023/12/17 01:48:12;;;;;;;;;;;;;;;6.69;96.26;100343.05;109619;1252;68545;-62
2023/12/17 01:50:40;;;;;;;;;;;;;;;6.93;94.58;100338.68;109482;1254;72760;-63
2023/12/17 01:53:08;;;;;;;;;;;;;;;6.69;95.70;100333.25;109546;1253;60716;-63
2023/12/17 01:55:35;;;;;;;;;;;;;;;6.89;94.79;100331.34;109565;1252;59888;-64
2023/12/17 01:58:03;;;;;;;;;;;;;;;6.67;96.02;100329.02;109548;1252;74736;-63
2023/12/17 02:00:30;;;;;;;;;;;;;;;6.73;95.65;100328.41;109506;1252;67547;-63
2023/12/17 02:02:58;;;;;;;;;;;;;;;6.72;95.61;100321.98;109287;1253;71856;-62
2023/12/17 02:05:25;;;;;;;;;;;;;;;6.53;97.10;100322.28;109539;1253;60969;-62
2023/12/17 02:07:53;;;;;;;;;;;;;;;6.48;97.92;100320.13;109587;1252;59906;-63
2023/12/17 02:10:20;;;;;;;;;;;;;;;6.58;97.34;100318.55;109562;1253;74719;-60
2023/12/17 02:12:47;;;;;;;;;;;;;;;6.47;98.07;100315.61;109497;1253;68873;-60
2023/12/17 02:15:15;;;;;;;;;;;;;;;6.54;97.72;100309.27;109139;1253;72724;-61
2023/12/17 02:17:42;;;;;;;;;;;;;;;6.46;98.04;100300.77;109187;1252;59666;-62
2023/12/17 02:20:11;;;;;;;;;;;;;;;6.44;98.62;100297.97;109117;1253;59000;-61
2023/12/17 02:22:38;;;;;;;;;;;;;;;6.67;97.11;100294.59;109224;1253;74850;-64
2023/12/17 02:25:06;;;;;;;;;;;;;;;6.70;96.80;100295.73;109569;1253;67370;-62
2023/12/17 02:27:33;;;;;;;;;;;;;;;6.67;96.32;100297.34;109533;1252;72717;-61
2023/12/17 02:30:00;;;;;;;;;;;;;;;6.53;97.39;100289.66;109555;1253;60909;-61
2023/12/17 02:32:28;;;;;;;;;;;;;;;6.44;98.02;100293.21;109555;1253;59831;-61
2023/12/17 02:34:55;;;;;;;;;;;;;;;6.28;99.15;100289.22;109558;1253;72605;-60
2023/12/17 02:37:23;;;;;;;;;;;;;;;6.48;98.10;100292.30;109130;1253;68915;-60
2023/12/17 02:39:50;;;;;;;;;;;;;;;6.57;97.50;100300.86;109491;1253;72706;-62
2023/12/17 02:42:18;;;;;;;;;;;;;;;6.48;98.39;100291.27;109476;1253;60966;-60
2023/12/17 02:44:45;;;;;;;;;;;;;;;6.65;97.28;100291.77;109579;1253;59704;-60
2023/12/17 02:47:13;;;;;;;;;;;;;;;6.58;97.70;100278.85;109562;1253;74720;-61
2023/12/17 02:49:41;;;;;;;;;;;;;;;6.65;97.59;100279.13;109556;1252;67346;-63
2023/12/17 02:52:08;;;;;;;;;;;;;;;6.81;96.69;100276.48;109569;1253;72690;-63
2023/12/17 02:54:36;;;;;;;;;;;;;;;6.64;97.46;100268.30;109467;1253;60892;-63
2023/12/17 02:57:03;;;;;;;;;;;;;;;6.66;97.84;100265.88;109590;1252;59007;-63
2023/12/17 02:59:31;;;;;;;;;;;;;;;6.49;98.94;100257.98;109549;1253;74758;-61
2023/12/17 03:01:58;;;;;;;;;;;;;;;6.54;99.18;100255.90;109499;1253;67547;-60
2023/12/17 03:04:25;;;;;;;;;;;;;;;6.54;99.37;100249.95;109519;1253;72710;-60
2023/12/17 03:06:53;;;;;;;;;;;;;;;6.43;99.58;100245.17;109572;1253;61503;-62
2023/12/17 03:09:21;;;;;;;;;;;;;;;6.38;100.00;100237.69;109489;1253;59887;-60
2023/12/17 03:11:49;;;;;;;;;;;;;;;6.59;99.48;100232.89;109136;1253;74746;-62
2023/12/17 03:14:17;;;;;;;;;;;;;;;6.52;99.53;100218.80;109125;1253;67579;-59
2023/12/17 03:16:44;;;;;;;;;;;;;;;6.58;99.25;100217.39;109197;1253;74805;-59
2023/12/17 03:19:11;;;;;;;;;;;;;;;6.79;98.67;100217.87;109493;1253;61048;-59
2023/12/17 03:21:39;;;;;;;;;;;;;;;6.91;96.94;100219.09;109139;1252;59004;-59
2023/12/17 03:24:06;;;;;;;;;;;;;;;6.80;97.55;100215.08;109677;1254;73391;-59
2023/12/17 03:26:34;;;;;;;;;;;;;;;6.58;98.78;100210.38;109687;1251;68809;-59
2023/12/17 03:29:02;;;;;;;;;;;;;;;6.55;99.11;100206.94;109558;1254;71916;-60
2023/12/17 03:31:29;;;;;;;;;;;;;;;6.60;98.77;100204.94;109595;1253;59666;-59
2023/12/17 03:33:57;;;;;;;;;;;;;;;6.45;99.68;100203.25;109347;1252;59833;-60
2023/12/17 03:36:25;;;;;;;;;;;;;;;6.49;99.44;100198.34;109326;1251;74723;-59
2023/12/17 03:38:52;;;;;;;;;;;;;;;6.73;97.84;100194.34;109323;1254;68570;-59
2023/12/17 03:41:23;;;;;;;;;;;;;;;6.67;97.61;100191.34;109632;1251;72835;-60
2023/12/17 03:43:51;;;;;;;;;;;;;;;6.73;97.20;100191.27;109629;1253;59415;-59
2023/12/17 03:46:19;;;;;;;;;;;;;;;6.58;97.80;100184.81;109627;1252;59893;-60
2023/12/17 03:48:47;;;;;;;;;;;;;;;6.45;99.06;100183.17;109615;1251;74712;-59
2023/12/17 03:51:14;;;;;;;;;;;;;;;6.71;97.40;100184.25;109306;1251;67573;-63
2023/12/17 03:53:42;;;;;;;;;;;;;;;6.67;97.46;100182.63;109627;1251;71559;-60
2023/12/17 03:56:09;;;;;;;;;;;;;;;6.74;96.58;100185.09;109607;1254;59649;-59
2023/12/17 03:58:37;;;;;;;;;;;;;;;6.89;95.56;100185.50;109626;1251;58950;-63
2023/12/17 04:01:05;;;;;;;;;;;;;;;6.86;95.56;100183.27;109628;1251;74708;-61
2023/12/17 04:03:33;;;;;;;;;;;;;;;6.72;96.74;100175.51;109607;1256;68672;-60
2023/12/17 04:06:00;;;;;;;;;;;;;;;6.95;95.27;100171.42;109570;1254;72737;-64
2023/12/17 04:08:28;;;;;;;;;;;;;;;6.87;95.48;100161.38;109592;1251;61057;-59
2023/12/17 04:10:55;;;;;;;;;;;;;;;6.81;96.26;100156.48;109690;1253;59721;-59
2023/12/17 04:13:23;;;;;;;;;;;;;;;6.82;96.30;100150.17;109590;1251;73572;-59
2023/12/17 04:15:50;;;;;;;;;;;;;;;6.89;95.91;100140.18;109648;1253;68815;-59
2023/12/17 04:18:18;;;;;;;;;;;;;;;7.11;94.39;100144.19;109611;1253;72805;-60
2023/12/17 04:20:46;;;;;;;;;;;;;;;7.09;94.21;100146.73;109290;1256;60243;-59
2023/12/17 04:23:13;;;;;;;;;;;;;;;6.81;95.76;100137.98;109568;1253;59864;-59
2023/12/17 04:25:41;;;;;;;;;;;;;;;7.01;95.12;100136.83;109042;1256;74860;-59
2023/12/17 04:28:08;;;;;;;;;;;;;;;7.07;94.44;100133.33;109083;1256;67365;-59
2023/12/17 04:30:36;;;;;;;;;;;;;;;7.15;93.62;100128.46;109082;1256;72900;-59
2023/12/17 04:33:03;;;;;;;;;;;;;;;7.14;93.92;100123.80;109058;1257;59270;-59
2023/12/17 04:35:31;;;;;;;;;;;;;;;7.33;92.37;100123.15;109134;1256;59038;-59
2023/12/17 04:37:58;;;;;;;;;;;;;;;7.30;92.37;100124.38;109057;1256;73455;-59
2023/12/17 04:40:26;;;;;;;;;;;;;;;7.34;92.33;100127.86;109111;1256;68522;-59
2023/12/17 04:42:53;;;;;;;;;;;;;;;7.40;91.54;100117.91;109069;1256;70529;-62
2023/12/17 04:45:21;;;;;;;;;;;;;;;7.34;91.78;100118.09;109049;1261;60968;-60
2023/12/17 04:47:48;;;;;;;;;;;;;;;7.57;90.62;100114.52;108999;1258;59898;-60
2023/12/17 04:50:16;;;;;;;;;;;;;;;7.56;90.33;100111.93;109050;1257;74710;-59
2023/12/17 04:52:43;;;;;;;;;;;;;;;7.49;90.96;100103.86;109097;1258;68824;-61
2023/12/17 04:55:10;;;;;;;;;;;;;;;7.44;91.89;100094.08;109044;1257;72725;-59
2023/12/17 04:57:38;;;;;;;;;;;;;;;7.33;93.38;100101.23;108886;1257;61100;-60
2023/12/17 05:00:06;;;;;;;;;;;;;;;7.33;92.92;100101.29;109097;1257;59913;-63
2023/12/17 05:02:34;;;;;;;;;;;;;;;7.38;92.52;100096.89;109056;1258;74720;-59
2023/12/17 05:05:01;;;;;;;;;;;;;;;7.37;92.70;100095.75;109014;1258;68545;-59
2023/12/17 05:07:28;;;;;;;;;;;;;;;7.49;92.26;100099.05;109079;1257;72741;-59
2023/12/17 05:09:57;;;;;;;;;;;;;;;7.46;92.17;100098.17;109048;1257;59679;-59
2023/12/17 05:12:24;;;;;;;;;;;;;;;7.32;94.32;100098.46;109062;1258;59951;-58
2023/12/17 05:14:52;;;;;;;;;;;;;;;7.40;94.28;100096.41;108937;1257;73186;-58
2023/12/17 05:17:20;;;;;;;;;;;;;;;7.23;96.05;100097.81;109060;1257;68857;-58
2023/12/17 05:19:47;;;;;;;;;;;;;;;7.21;96.63;100094.11;109056;1257;72706;-60
2023/12/17 05:22:15;;;;;;;;;;;;;;;7.41;95.62;100089.75;109079;1257;60955;-59
2023/12/17 05:24:43;;;;;;;;;;;;;;;7.35;95.71;100094.16;108995;1256;127193;-59
2023/12/17 05:27:10;;;;;;;;;;;;;;;7.20;97.07;100088.91;109165;1256;73449;-58
2023/12/17 05:29:38;;;;;;;;;;;;;;;7.10;98.05;100089.87;109207;1253;68516;-58
2023/12/17 05:32:05;;;;;;;;;;;;;;;7.17;97.62;100092.87;109458;1253;71430;-61
2023/12/17 05:34:33;;;;;;;;;;;;;;;7.42;95.71;100098.73;109214;1256;60928;-61
2023/12/17 05:37:00;;;;;;;;;;;;;;;7.48;94.75;100090.68;109286;1253;59842;-62
2023/12/17 05:39:27;;;;;;;;;;;;;;;7.50;94.10;100092.42;109472;1257;73446;-59
2023/12/17 05:41:55;;;;;;;;;;;;;;;7.48;93.99;100090.15;109294;1252;68631;-60
2023/12/17 05:44:22;;;;;;;;;;;;;;;7.48;93.61;100090.42;109452;1257;72689;-63
2023/12/17 05:46:50;;;;;;;;;;;;;;;7.37;94.67;100084.90;109379;1253;60948;-60
2023/12/17 05:49:17;;;;;;;;;;;;;;;7.43;94.42;100081.77;109578;1253;58979;-62
2023/12/17 05:51:45;;;;;;;;;;;;;;;7.44;94.15;100081.48;109495;1252;73450;-59
2023/12/17 05:54:16;;;;;;;;;;;;;;;7.23;95.55;100083.17;109489;1253;68037;-60
2023/12/17 05:56:43;;;;;;;;;;;;;;;7.50;93.30;100078.53;109515;1252;71481;-60
2023/12/17 05:59:11;;;;;;;;;;;;;;;7.45;93.73;100076.70;109504;1253;59675;-63
2023/12/17 06:01:38;;;;;;;;;;;;;;;7.54;92.96;100082.48;109537;1253;59035;-60
2023/12/17 06:04:06;;;;;;;;;;;;;;;7.53;92.62;100077.65;109558;1253;74709;-62
2023/12/17 06:06:34;;;;;;;;;;;;;;;7.55;92.68;100075.04;109548;1253;68832;-61
2023/12/17 06:09:02;;;;;;;;;;;;;;;7.68;91.64;100071.86;109556;1253;72481;-62
2023/12/17 06:11:29;;;;;;;;;;;;;;;7.41;93.01;100077.05;109219;1254;59945;-62
2023/12/17 06:13:57;;;;;;;;;;;;;;;7.46;93.10;100079.48;109531;1254;59867;-61
2023/12/17 06:16:24;;;;;;;;;;;;;;;7.76;91.24;100082.67;109259;1252;74803;-69
2023/12/17 06:18:53;;;;;;;;;;;;;;;7.47;93.49;100076.23;109514;1256;67402;-61
2023/12/17 06:21:25;;;;;;;;;;;;;;;7.57;93.15;100069.22;109530;1253;70458;-62
2023/12/17 06:23:57;;;;;;;;;;;;;;;7.34;94.75;100065.73;109385;1255;59633;-60
2023/12/17 06:26:25;;;;;;;;;;;;;;;7.57;93.81;100069.47;109377;1253;58929;-59
2023/12/17 06:28:53;;;;;;;;;;;;;;;7.49;94.22;100074.98;109456;1253;73449;-62
2023/12/17 06:31:21;;;;;;;;;;;;;;;7.37;95.63;100077.96;109519;1253;68802;-59
2023/12/17 06:33:49;;;;;;;;;;;;;;;7.41;95.89;100071.48;109324;1254;71458;-58
2023/12/17 06:36:16;;;;;;;;;;;;;;;7.52;95.29;100078.56;109106;1253;60956;-61
2023/12/17 06:38:44;;;;;;;;;;;;;;;7.31;96.72;100067.74;109514;1253;59024;-58
2023/12/17 06:41:11;;;;;;;;;;;;;;;7.34;96.49;100073.77;109489;1253;72768;-62
2023/12/17 06:43:39;;;;;;;;;;;;;;;7.39;96.38;100080.74;109367;1253;68563;-60
2023/12/17 06:46:07;;;;;;;;;;;;;;;7.32;96.79;100080.14;109447;1254;72722;-62
2023/12/17 06:48:35;;;;;;;;;;;;;;;7.21;97.00;100075.80;109306;1255;60830;-63
2023/12/17 06:51:03;;;;;;;;;;;;;;;7.23;97.12;100089.48;109499;1254;59938;-59
2023/12/17 06:53:30;;;;;;;;;;;;;;;7.45;95.56;100084.50;109489;1254;74733;-59
2023/12/17 06:55:58;;;;;;;;;;;;;;;7.43;95.20;100080.23;109488;1253;67235;-62
2023/12/17 06:58:25;;;;;;;;;;;;;;;7.54;94.59;100079.48;109309;1253;72737;-59
2023/12/17 07:00:53;;;;;;;;;;;;;;;7.54;94.13;100064.85;109440;1254;58911;-60
2023/12/17 07:03:20;;;;;;;;;;;;;;;7.70;93.49;100067.73;109326;1254;59876;-59
2023/12/17 07:05:48;;;;;;;;;;;;;;;7.51;94.68;100068.45;109474;1252;73639;-60
2023/12/17 07:08:15;;;;;;;;;;;;;;;7.50;94.85;100070.81;109465;1254;68954;-60
2023/12/17 07:10:44;;;;;;;;;;;;;;;7.39;95.85;100070.02;109285;1253;71425;-59
2023/12/17 07:13:11;;;;;;;;;;;;;;;7.11;98.15;100057.70;109211;1254;59703;-61
2023/12/17 07:15:39;;;;;;;;;;;;;;;7.44;96.29;100063.14;109305;1255;59000;-60
2023/12/17 07:18:06;;;;;;;;;;;;;;;7.46;95.67;100058.04;109394;1253;74062;-58
2023/12/17 07:20:34;;;;;;;;;;;;;;;7.39;96.32;100062.75;109460;1253;68845;-59
2023/12/17 07:23:01;;;;;;;;;;;;;;;7.41;96.24;100070.57;109486;1254;72913;-62
2023/12/17 07:25:29;;;;;;;;;;;;;;;7.32;97.38;100068.73;109562;1254;60917;-59
2023/12/17 07:27:56;;;;;;;;;;;;;;;7.33;97.07;100068.84;109604;1254;58955;-60
2023/12/17 07:30:24;;;;;;;;;;;;;;;7.12;98.93;100077.02;109620;1256;74741;-63
2023/12/17 07:32:51;;;;;;;;;;;;;;;7.23;98.79;100086.44;109635;1253;68883;-61
2023/12/17 07:35:19;;;;;;;;;;;;;;;7.22;98.78;100089.84;109606;1253;72742;-60
2023/12/17 07:37:46;;;;;;;;;;;;;;;7.35;97.95;100086.08;109594;1254;60957;-61
2023/12/17 07:40:14;;;;;;;;;;;;;;;7.24;99.14;100086.67;109552;1254;58841;-60
2023/12/17 07:42:41;;;;;;;;;;;;;;;7.22;99.13;100089.75;109583;1253;72858;-60
2023/12/17 07:45:09;;;;;;;;;;;;;;;7.52;97.55;100088.83;109665;1253;68835;-59
2023/12/17 07:47:36;;;;;;;;;;;;;;;7.08;99.55;100086.44;109536;1254;72730;-62
2023/12/17 07:50:05;;;;;;;;;;;;;;;7.06;100.00;100079.39;109563;1253;60914;-60
2023/12/17 07:52:32;;;;;;;;;;;;;;;7.08;100.00;100083.36;109584;1254;59062;-64
2023/12/17 07:55:00;;;;;;;;;;;;;;;7.08;100.00;100078.45;109605;1252;73441;-63
2023/12/17 07:57:28;;;;;;;;;;;;;;;7.33;98.92;100078.33;109609;1254;67348;-60
2023/12/17 07:59:55;;;;;;;;;;;;;;;7.22;99.35;100077.70;109614;1254;72730;-61
2023/12/17 08:02:23;;;;;;;;;;;;;;;7.43;98.32;100079.80;109603;1254;59055;-59
2023/12/17 08:04:51;;;;;;;;;;;;;;;7.35;98.40;100084.36;109618;1254;58939;-63
2023/12/17 08:07:19;;;;;;;;;;;;;;;7.21;99.27;100079.39;109432;1254;73477;-61
2023/12/17 08:09:47;;;;;;;;;;;;;;;7.17;99.17;100083.72;109561;1252;67715;-59
2023/12/17 08:12:15;;;;;;;;;;;;;;;7.06;99.55;100082.16;109279;1252;71486;-61
2023/12/17 08:14:43;;;;;;;;;;;;;;;7.20;99.10;100086.02;109597;1253;59681;-60
2023/12/17 08:17:11;;;;;;;;;;;;;;;7.01;99.90;100079.21;109630;1254;59875;-61
2023/12/17 08:19:38;;;;;;;;;;;;;;;7.01;100.00;100078.52;109617;1253;74153;-59
2023/12/17 08:22:06;;;;;;;;;;;;;;;7.17;99.57;100081.39;109607;1254;68980;-60
2023/12/17 08:24:33;;;;;;;;;;;;;;;7.26;98.73;100078.89;109582;1252;72741;-59
2023/12/17 08:27:02;;;;;;;;;;;;;;;7.22;99.28;100072.67;109567;1254;60947;-61
2023/12/17 08:29:29;;;;;;;;;;;;;;;7.14;99.75;100075.00;109589;1252;59964;-62
2023/12/17 08:31:57;;;;;;;;;;;;;;;7.16;99.37;100067.74;109537;1254;74721;-59
2023/12/17 08:34:25;;;;;;;;;;;;;;;7.01;99.93;100071.16;109461;1254;67556;-62
2023/12/17 08:36:52;;;;;;;;;;;;;;;7.30;98.92;100070.30;109370;1254;71466;-62
2023/12/17 08:39:23;;;;;;;;;;;;;;;7.33;98.56;100065.80;109399;1254;61019;-59
2023/12/17 08:41:50;;;;;;;;;;;;;;;7.47;97.17;100065.98;109481;1254;59957;-58
2023/12/17 08:44:22;;;;;;;;;;;;;;;7.43;97.95;100067.73;109431;1254;74716;-61
2023/12/17 08:46:51;;;;;;;;;;;;;;;7.48;97.17;100061.05;109412;1254;67671;-62
2023/12/17 08:49:21;;;;;;;;;;;;;;;7.12;99.06;100053.37;109250;1254;73280;-59
2023/12/17 08:51:49;;;;;;;;;;;;;;;7.20;98.52;100058.73;109229;1257;59709;-59
2023/12/17 08:54:17;;;;;;;;;;;;;;;7.20;98.26;100062.47;109248;1258;59796;-61
2023/12/17 08:56:45;;;;;;;;;;;;;;;7.39;97.16;100066.05;109064;1257;74717;-59
2023/12/17 08:59:12;;;;;;;;;;;;;;;7.29;96.86;100062.54;108980;1258;68914;-62
2023/12/17 09:01:40;;;;;;;;;;;;;;;7.28;96.64;100068.48;109089;1257;73640;-61
2023/12/17 09:04:08;;;;;;;;;;;;;;;7.09;97.92;100065.92;109160;1257;60998;-61
2023/12/17 09:06:42;;;;;;;;;;;;;;;7.36;95.89;100066.71;109359;1254;59905;-59
2023/12/17 09:09:10;;;;;;;;;;;;;;;7.25;95.71;100061.07;109366;1254;73435;-59
2023/12/17 09:11:37;;;;;;;;;;;;;;;7.17;96.47;100065.16;109406;1254;68534;-59
2023/12/17 09:14:07;;;;;;;;;;;;;;;7.18;95.93;100065.89;109398;1256;71531;-59
2023/12/17 09:16:34;;;;;;;;;;;;;;;7.46;94.12;100069.58;109396;1254;60970;-59
2023/12/17 09:19:02;;;;;;;;;;;;;;;7.29;94.92;100061.48;109400;1254;59007;-57
2023/12/17 09:21:30;;;;;;;;;;;;;;;7.48;93.77;100066.45;109369;1253;74751;-58
2023/12/17 09:23:58;;;;;;;;;;;;;;;7.61;92.69;100066.97;109377;1254;67987;-58
2023/12/17 09:26:25;;;;;;;;;;;;;;;7.57;92.28;100073.29;109409;1253;72715;-59
2023/12/17 09:28:53;;;;;;;;;;;;;;;7.33;93.10;100069.45;109353;1254;60941;-59
2023/12/17 09:31:20;;;;;;;;;;;;;;;7.43;92.67;100069.86;109408;1253;59410;-59
2023/12/17 09:33:48;;;;;;;;;;;;;;;7.32;92.68;100065.52;109367;1253;74702;-62
2023/12/17 09:36:16;;;;;;;;;;;;;;;7.35;92.92;100067.05;109394;1253;67587;-59
2023/12/17 09:38:44;;;;;;;;;;;;;;;7.12;94.50;100062.48;109133;1252;71184;-62
2023/12/17 09:41:12;;;;;;;;;;;;;;;7.13;94.57;100065.23;109377;1253;60947;-62
2023/12/17 09:43:39;;;;;;;;;;;;;;;7.34;93.22;100062.83;109371;1253;58977;-63
2023/12/17 09:46:07;;;;;;;;;;;;;;;7.28;93.12;100060.48;109023;1258;74771;-60
2023/12/17 09:48:34;;;;;;;;;;;;;;;7.26;93.47;100051.83;109249;1255;67542;-59
2023/12/17 09:51:03;;;;;;;;;;;;;;;7.30;93.14;100049.11;109285;1255;72733;-61
2023/12/17 09:53:33;;;;;;;;;;;;;;;7.33;92.94;100052.20;109279;1255;60872;-59
2023/12/17 09:56:01;;;;;;;;;;;;;;;7.43;92.25;100048.29;109269;1255;58940;-61
2023/12/17 09:58:28;;;;;;;;;;;;;;;7.53;91.53;100048.02;109303;1256;74715;-60
2023/12/17 10:00:56;;;;;;;;;;;;;;;7.41;92.12;100041.90;109305;1255;67339;-62
2023/12/17 10:03:24;;;;;;;;;;;;;;;7.46;91.80;100043.33;109271;1256;72748;-63
2023/12/17 10:05:52;;;;;;;;;;;;;;;7.36;92.14;100040.05;109161;1255;59704;-60
2023/12/17 10:08:19;;;;;;;;;;;;;;;7.40;92.68;100041.98;109196;1256;59066;-61
2023/12/17 10:10:47;;;;;;;;;;;;;;;7.29;93.58;100038.30;109185;1256;74749;-62
2023/12/17 10:13:16;;;;;;;;;;;;;;;7.35;93.13;100043.27;109203;1256;69261;-58
2023/12/17 10:15:53;;;;;;;;;;;;;;;7.44;92.07;100040.50;109264;1254;75262;-59
2023/12/17 10:18:21;;;;;;;;;;;;;;;7.36;92.49;100037.23;109407;1253;60992;-58
2023/12/17 10:20:49;;;;;;;;;;;;;;;7.44;92.60;100035.33;109542;1253;58896;-60
2023/12/17 10:23:16;;;;;;;;;;;;;;;7.40;92.56;100035.54;109555;1253;74718;-60
2023/12/17 10:25:44;;;;;;;;;;;;;;;7.37;92.81;100039.88;109495;1252;68843;-62
2023/12/17 10:28:12;;;;;;;;;;;;;;;7.44;92.59;100035.86;109487;1253;71482;-62
2023/12/17 10:30:41;;;;;;;;;;;;;;;7.47;92.09;100032.79;109512;1252;60930;-60
2023/12/17 10:33:10;;;;;;;;;;;;;;;7.58;91.37;100032.39;109504;1252;58948;-62
2023/12/17 10:35:38;;;;;;;;;;;;;;;7.38;92.71;100030.61;109502;1253;73453;-64
2023/12/17 10:38:07;;;;;;;;;;;;;;;7.30;93.36;100017.88;109463;1252;67265;-60
2023/12/17 10:40:36;;;;;;;;;;;;;;;7.38;93.40;100018.80;109390;1253;71175;-59
2023/12/17 10:43:04;;;;;;;;;;;;;;;7.47;92.50;100009.99;109348;1254;61002;-63
2023/12/17 10:45:31;;;;;;;;;;;;;;;7.38;93.22;100007.85;109443;1253;59885;-59
2023/12/17 10:47:59;;;;;;;;;;;;;;;7.34;93.99;100013.73;109534;1252;74705;-62
2023/12/17 10:50:27;;;;;;;;;;;;;;;7.59;92.67;100017.01;109422;1254;68250;-59
2023/12/17 10:52:54;;;;;;;;;;;;;;;7.66;92.08;100019.80;109502;1253;72861;-61
2023/12/17 10:55:23;;;;;;;;;;;;;;;7.83;91.00;100015.41;109475;1252;59701;-64
2023/12/17 10:57:50;;;;;;;;;;;;;;;7.62;92.53;100017.54;109550;1253;59042;-58
2023/12/17 11:00:19;;;;;;;;;;;;;;;7.67;92.28;100027.02;109514;1252;74724;-58
2023/12/17 11:02:49;;;;;;;;;;;;;;;7.84;91.67;100027.83;109506;1253;68756;-61
2023/12/17 11:05:17;;;;;;;;;;;;;;;7.86;91.52;100028.98;109450;1253;71467;-60
2023/12/17 11:07:45;;;;;;;;;;;;;;;7.65;93.36;100030.38;109397;1252;59644;-58
2023/12/17 11:10:12;;;;;;;;;;;;;;;7.85;92.35;100034.17;109518;1252;59904;-58
2023/12/17 11:12:40;;;;;;;;;;;;;;;8.23;90.37;100043.04;109544;1252;74754;-58
2023/12/17 11:15:08;;;;;;;;;;;;;;;8.23;90.30;100046.78;109607;1252;67236;-58
2023/12/17 11:17:36;;;;;;;;;;;;;;;7.97;91.63;100044.80;109295;1253;71495;-58
2023/12/17 11:20:24;;;;;;;;;;;;;;;7.95;92.29;100035.79;109483;1252;59640;-59
2023/12/17 11:22:51;;;;;;;;;;;;;;;8.19;91.32;100043.84;109339;1254;59157;-59
2023/12/17 11:25:20;;;;;;;;;;;;;;;8.34;89.93;100043.72;109349;1253;74724;-58
2023/12/17 11:27:50;;;;;;;;;;;;;;;8.06;92.18;100038.93;109319;1254;68203;-58
2023/12/17 11:30:38;;;;;;;;;;;;;;;7.70;95.15;100034.02;109127;1254;72754;-59
2023/12/17 11:33:06;;;;;;;;;;;;;;;7.89;93.90;100028.98;109281;1255;59999;-58
2023/12/17 11:35:35;;;;;;;;;;;;;;;7.97;93.33;100027.45;109368;1253;59883;-59
2023/12/17 11:38:03;;;;;;;;;;;;;;;7.68;95.44;100020.60;109295;1254;73646;-58
2023/12/17 11:40:30;;;;;;;;;;;;;;;7.91;94.38;100022.95;109355;1254;68809;-62
2023/12/17 11:42:58;;;;;;;;;;;;;;;7.88;94.78;100037.80;109142;1254;72737;-69
2023/12/17 11:45:32;;;;;;;;;;;;;;;7.91;94.76;100029.05;109291;1254;59708;-59
2023/12/17 11:48:09;;;;;;;;;;;;;;;7.94;94.85;100028.85;109301;1253;58927;-58
2023/12/17 11:50:40;;;;;;;;;;;;;;;7.71;96.54;100024.15;109414;1254;75178;-58
2023/12/17 11:53:08;;;;;;;;;;;;;;;7.91;95.97;100025.73;109459;1251;68790;-58
2023/12/17 11:55:40;;;;;;;;;;;;;;;7.96;95.03;100026.89;109273;1251;72743;-58
2023/12/17 11:58:07;;;;;;;;;;;;;;;8.09;93.94;100033.39;109215;1254;59969;-68
2023/12/17 12:00:34;;;;;;;;;;;;;;;7.87;95.33;100029.01;109615;1251;58856;-58
2023/12/17 12:03:02;;;;;;;;;;;;;;;7.85;95.76;100028.78;109603;1251;74712;-58
2023/12/17 12:05:30;;;;;;;;;;;;;;;7.63;97.73;100021.95;109616;1251;67253;-58
2023/12/17 12:07:57;;;;;;;;;;;;;;;7.96;95.79;100030.84;109588;1251;72610;-58
2023/12/17 12:10:25;;;;;;;;;;;;;;;7.93;96.06;100033.88;109323;1254;60930;-58
2023/12/17 12:12:59;;;;;;;;;;;;;;;7.81;96.93;100026.36;109607;1252;58976;-58
2023/12/17 12:15:27;;;;;;;;;;;;;;;7.89;96.69;100031.77;109639;1251;72478;-58
2023/12/17 12:17:54;;;;;;;;;;;;;;;7.85;96.76;100027.15;109594;1251;67367;-58
2023/12/17 12:20:35;;;;;;;;;;;;;;;7.81;96.91;100025.51;109582;1251;71705;-57
2023/12/17 12:23:07;;;;;;;;;;;;;;;7.87;96.55;100025.95;109436;1253;61058;-58
2023/12/17 12:25:35;;;;;;;;;;;;;;;7.98;95.84;100033.04;109231;1252;59087;-58
2023/12/17 12:28:03;;;;;;;;;;;;;;;7.98;95.52;100044.34;109630;1252;74699;-59
2023/12/17 12:30:32;;;;;;;;;;;;;;;8.12;95.00;100045.23;109641;1252;68565;-58
2023/12/17 12:33:13;;;;;;;;;;;;;;;7.82;97.16;100049.54;109202;1252;71485;-58
2023/12/17 12:35:41;;;;;;;;;;;;;;;8.02;96.01;100048.38;109628;1251;60923;-59
2023/12/17 12:38:27;;;;;;;;;;;;;;;8.05;95.26;100056.27;109605;1256;59871;-59